松山國際航空站 - ATIS

METAR RCSS 211130Z 10005KT 9999 SCT025 BKN040 BKN050 25/20 Q1015 NOSIG RMK A2999=

站台狀態:Online
最後更新:2024-02-21 19:30:01